createdAt,value
2023-03-21T00:01:14.968Z,27.67
2023-03-21T00:05:15.980Z,27.65
2023-03-21T00:09:14.911Z,27.63
2023-03-21T00:13:14.851Z,27.65
2023-03-21T00:17:14.772Z,27.65
2023-03-21T00:21:46.242Z,27.69
2023-03-21T00:25:15.753Z,27.62
2023-03-21T00:29:14.760Z,27.63
2023-03-21T00:33:22.369Z,27.66
2023-03-21T00:37:15.639Z,27.65
2023-03-21T00:41:25.870Z,27.60
2023-03-21T00:45:15.585Z,27.61
2023-03-21T00:49:14.489Z,27.60
2023-03-21T00:53:14.953Z,27.64
2023-03-21T00:57:14.448Z,27.61
2023-03-21T01:01:14.466Z,27.61
2023-03-21T01:05:14.358Z,27.60
2023-03-21T01:09:14.338Z,27.66
2023-03-21T01:13:14.244Z,27.58
2023-03-21T01:17:14.257Z,27.58
2023-03-21T01:21:14.181Z,27.59
2023-03-21T01:25:22.304Z,27.56
2023-03-21T01:29:15.170Z,27.61
2023-03-21T01:33:14.145Z,27.56
2023-03-21T01:37:14.093Z,27.59
2023-03-21T01:41:19.439Z,27.58
2023-03-21T01:45:14.981Z,27.59
2023-03-21T01:49:13.993Z,27.54
2023-03-21T01:53:13.939Z,27.56
2023-03-21T01:57:13.906Z,27.58
2023-03-21T02:01:13.868Z,27.55
2023-03-21T02:05:13.791Z,27.56
2023-03-21T02:09:13.840Z,27.57
2023-03-21T02:13:13.738Z,27.60
2023-03-21T02:17:13.735Z,27.57
2023-03-21T02:21:13.788Z,27.58
2023-03-21T02:25:21.830Z,27.51
2023-03-21T02:29:15.417Z,27.59
2023-03-21T02:33:13.689Z,27.56
2023-03-21T02:37:13.660Z,27.56
2023-03-21T02:41:19.048Z,27.57
2023-03-21T02:45:14.574Z,27.52
2023-03-21T02:49:13.571Z,27.57
2023-03-21T02:53:13.497Z,27.56
2023-03-21T02:57:13.443Z,27.52
2023-03-21T03:01:13.509Z,27.53
2023-03-21T03:05:20.760Z,27.54
2023-03-21T03:09:14.438Z,27.54
2023-03-21T03:13:13.347Z,27.53
2023-03-21T03:17:13.317Z,27.55
2023-03-21T03:21:13.285Z,27.49
2023-03-21T03:25:23.164Z,27.56
2023-03-21T03:29:14.227Z,27.54
2023-03-21T03:33:13.160Z,27.53
2023-03-21T03:37:13.082Z,27.48
2023-03-21T03:41:13.096Z,27.52
2023-03-21T03:45:13.060Z,27.52
2023-03-21T03:49:13.473Z,27.49
2023-03-21T03:53:18.176Z,27.49
2023-03-21T03:57:14.039Z,27.52
2023-03-21T04:01:12.906Z,27.52
2023-03-21T04:05:12.841Z,27.46
2023-03-21T04:09:20.906Z,27.53
2023-03-21T04:13:13.816Z,27.49
2023-03-21T04:17:12.772Z,27.47
2023-03-21T04:21:12.683Z,27.49
2023-03-21T04:25:14.164Z,27.52
2023-03-21T04:29:12.625Z,27.46
2023-03-21T04:33:12.637Z,27.48
2023-03-21T04:37:12.557Z,27.49
2023-03-21T04:41:12.506Z,27.45
2023-03-21T04:45:12.453Z,27.50
2023-03-21T04:49:12.436Z,27.49
2023-03-21T04:53:12.401Z,27.46
2023-03-21T04:57:12.433Z,27.45
2023-03-21T05:01:12.372Z,27.50
2023-03-21T05:05:12.342Z,26.95
2023-03-21T05:09:12.239Z,26.54
2023-03-21T05:13:12.193Z,26.40
2023-03-21T05:17:12.149Z,26.30
2023-03-21T05:21:12.105Z,26.29
2023-03-21T05:25:12.109Z,26.21
2023-03-21T05:29:12.101Z,26.01
2023-03-21T05:33:12.043Z,26.23
2023-03-21T05:37:12.011Z,26.32
2023-03-21T05:41:11.967Z,26.33
2023-03-21T05:45:11.896Z,26.44
2023-03-21T05:49:11.853Z,26.57
2023-03-21T05:53:11.856Z,26.53
2023-03-21T05:57:11.772Z,26.54
2023-03-21T06:01:11.778Z,26.57
2023-03-21T06:05:11.695Z,26.30
2023-03-21T06:09:11.688Z,26.27
2023-03-21T06:13:11.650Z,26.07
2023-03-21T06:17:11.638Z,25.95
2023-03-21T06:21:11.607Z,25.85
2023-03-21T06:25:11.532Z,25.42
2023-03-21T06:29:11.489Z,25.48
2023-03-21T06:33:11.624Z,26.84
2023-03-21T06:37:11.726Z,27.40
2023-03-21T06:41:12.091Z,27.11
2023-03-21T06:45:12.096Z,27.19
2023-03-21T06:49:12.564Z,26.77
2023-03-21T06:53:12.327Z,26.61
2023-03-21T06:57:12.400Z,26.43
2023-03-21T07:01:12.357Z,26.38
2023-03-21T07:05:12.442Z,26.26
2023-03-21T07:09:12.376Z,26.28
2023-03-21T07:13:12.366Z,26.36
2023-03-21T07:17:12.428Z,26.30
2023-03-21T07:21:12.422Z,26.42
2023-03-21T07:25:12.454Z,26.30
2023-03-21T07:29:12.367Z,26.31
2023-03-21T07:33:12.510Z,26.27
2023-03-21T07:37:12.568Z,26.75
2023-03-21T07:41:12.632Z,28.10
2023-03-21T07:45:12.310Z,27.79
2023-03-21T07:49:12.437Z,27.72
2023-03-21T07:53:12.296Z,27.40
2023-03-21T07:57:13.779Z,26.86
2023-03-21T08:01:12.312Z,27.85
2023-03-21T08:05:12.418Z,26.86
2023-03-21T08:09:12.545Z,26.78
2023-03-21T08:13:12.605Z,26.73
2023-03-21T08:17:12.645Z,26.65
2023-03-21T08:21:12.755Z,26.96
2023-03-21T08:25:12.956Z,27.04
2023-03-21T08:29:12.879Z,27.10
2023-03-21T08:33:12.848Z,27.73
2023-03-21T08:37:13.153Z,27.63
2023-03-21T08:41:12.798Z,27.12
2023-03-21T08:45:12.723Z,27.26
2023-03-21T08:49:12.782Z,26.90
2023-03-21T08:53:12.676Z,26.62
2023-03-21T08:57:12.634Z,26.84
2023-03-21T09:01:12.593Z,26.77
2023-03-21T09:05:12.578Z,26.85
2023-03-21T09:09:12.511Z,26.79
2023-03-21T09:13:12.475Z,26.62
2023-03-21T09:17:12.435Z,26.68
2023-03-21T09:21:12.433Z,26.73
2023-03-21T09:25:12.390Z,26.70
2023-03-21T09:29:12.370Z,26.45
2023-03-21T09:33:12.343Z,26.14
2023-03-21T09:37:12.330Z,28.24
2023-03-21T09:41:12.248Z,27.70
2023-03-21T09:45:12.230Z,27.37
2023-03-21T09:49:12.218Z,28.36
2023-03-21T09:53:12.121Z,28.02
2023-03-21T09:57:12.108Z,27.79
2023-03-21T10:01:12.102Z,27.80
2023-03-21T10:05:12.092Z,27.65
2023-03-21T10:09:12.150Z,27.79
2023-03-21T10:13:12.000Z,27.84
2023-03-21T10:17:11.933Z,27.32
2023-03-21T10:21:12.137Z,27.56
2023-03-21T10:25:12.207Z,27.18
2023-03-21T10:29:11.929Z,27.28
2023-03-21T10:33:12.387Z,27.63
2023-03-21T10:37:11.821Z,27.66
2023-03-21T10:41:11.851Z,27.75
2023-03-21T10:45:12.107Z,27.65
2023-03-21T10:49:11.751Z,27.41
2023-03-21T10:53:11.646Z,27.22
2023-03-21T10:57:11.649Z,26.87
2023-03-21T11:01:11.648Z,27.07
2023-03-21T11:05:11.782Z,26.94
2023-03-21T11:09:11.694Z,26.90
2023-03-21T11:13:11.780Z,26.76
2023-03-21T11:17:11.659Z,27.11
2023-03-21T11:21:11.621Z,27.71
2023-03-21T11:25:11.606Z,27.32
2023-03-21T11:29:11.645Z,27.01
2023-03-21T11:33:11.545Z,27.42
2023-03-21T11:37:11.513Z,27.59
2023-03-21T11:41:11.474Z,27.52
2023-03-21T11:45:11.450Z,27.23
2023-03-21T11:49:11.365Z,27.02
2023-03-21T11:53:11.354Z,26.87
2023-03-21T11:57:11.424Z,26.82
2023-03-21T12:01:11.620Z,26.76
2023-03-21T12:05:11.719Z,26.72
2023-03-21T12:09:11.919Z,26.82
2023-03-21T12:13:12.145Z,26.80
2023-03-21T12:17:12.338Z,26.76
2023-03-21T12:21:12.649Z,27.05
2023-03-21T12:25:12.669Z,27.04
2023-03-21T12:29:12.989Z,27.06
2023-03-21T12:33:13.067Z,27.01
2023-03-21T12:37:13.226Z,26.87
2023-03-21T12:41:13.402Z,26.66
2023-03-21T12:45:15.729Z,26.50
2023-03-21T12:49:13.684Z,26.29
2023-03-21T12:53:13.905Z,26.24
2023-03-21T12:57:14.086Z,26.13
2023-03-21T13:01:14.437Z,26.01
2023-03-21T13:05:14.482Z,26.00
2023-03-21T13:09:14.672Z,25.99
2023-03-21T13:13:14.867Z,25.95
2023-03-21T13:17:15.123Z,25.94
2023-03-21T13:21:15.282Z,25.89
2023-03-21T13:25:15.399Z,25.87
2023-03-21T13:29:15.584Z,25.88
2023-03-21T13:33:15.833Z,25.92
2023-03-21T13:37:15.955Z,25.87
2023-03-21T13:41:16.138Z,25.84
2023-03-21T13:45:16.300Z,25.90
2023-03-21T13:49:16.564Z,25.89
2023-03-21T13:53:16.701Z,26.11
2023-03-21T13:57:16.848Z,25.99
2023-03-21T14:01:17.023Z,25.81
2023-03-21T14:05:17.453Z,25.88
2023-03-21T14:09:17.446Z,25.98
2023-03-21T14:13:17.670Z,26.04
2023-03-21T14:17:17.848Z,25.89
2023-03-21T14:21:23.742Z,25.66
2023-03-21T14:25:18.984Z,25.68
2023-03-21T14:29:25.794Z,25.46
2023-03-21T14:33:18.930Z,25.49
2023-03-21T14:37:17.959Z,25.33
2023-03-21T14:41:18.062Z,25.34
2023-03-21T14:45:20.237Z,25.31
2023-03-21T14:49:18.218Z,25.15
2023-03-21T14:53:18.265Z,25.44
2023-03-21T14:57:18.192Z,25.43
2023-03-21T15:01:18.123Z,25.44
2023-03-21T15:05:18.095Z,25.45
2023-03-21T15:09:18.103Z,25.49
2023-03-21T15:13:18.044Z,25.53
2023-03-21T15:17:17.965Z,25.56
2023-03-21T15:21:17.924Z,25.59
2023-03-21T15:25:18.166Z,25.65
2023-03-21T15:29:18.022Z,25.70
2023-03-21T15:33:18.029Z,25.78
2023-03-21T15:37:17.945Z,25.74
2023-03-21T15:41:18.024Z,25.76
2023-03-21T15:45:17.868Z,25.76
2023-03-21T15:49:17.894Z,25.85
2023-03-21T15:53:18.232Z,25.80
2023-03-21T15:57:17.900Z,25.84
2023-03-21T16:01:17.758Z,25.80
2023-03-21T16:05:17.840Z,25.82
2023-03-21T16:09:17.896Z,25.79
2023-03-21T16:13:17.878Z,25.78
2023-03-21T16:17:17.777Z,25.78
2023-03-21T16:21:17.745Z,25.71
2023-03-21T16:25:17.702Z,25.76
2023-03-21T16:29:17.655Z,25.72
2023-03-21T16:33:17.618Z,25.70
2023-03-21T16:37:17.632Z,25.69
2023-03-21T16:41:17.561Z,25.67
2023-03-21T16:45:17.499Z,25.70
2023-03-21T16:49:17.483Z,25.68
2023-03-21T16:53:17.406Z,25.69
2023-03-21T16:57:17.407Z,25.68
2023-03-21T17:01:17.378Z,25.66
2023-03-21T17:05:17.333Z,25.68
2023-03-21T17:09:17.755Z,25.69
2023-03-21T17:13:17.267Z,25.74
2023-03-21T17:17:17.190Z,25.87
2023-03-21T17:21:17.396Z,26.02
2023-03-21T17:25:17.334Z,26.18
2023-03-21T17:29:17.314Z,26.35
2023-03-21T17:33:17.230Z,26.43
2023-03-21T17:37:17.209Z,26.56
2023-03-21T17:41:17.228Z,26.67
2023-03-21T17:45:17.126Z,26.82
2023-03-21T17:49:17.099Z,26.97
2023-03-21T17:53:17.095Z,27.12
2023-03-21T17:57:17.051Z,27.25
2023-03-21T18:01:17.028Z,27.36
2023-03-21T18:05:17.081Z,27.41
2023-03-21T18:09:19.887Z,27.49
2023-03-21T18:13:17.203Z,27.77
2023-03-21T18:17:17.189Z,27.98
2023-03-21T18:21:19.601Z,28.12
2023-03-21T18:25:17.138Z,28.16
2023-03-21T18:33:18.042Z,28.08
2023-03-21T18:37:17.000Z,28.03
2023-03-21T18:41:17.026Z,27.97
2023-03-21T18:45:17.007Z,27.97
2023-03-21T18:53:17.947Z,27.92
2023-03-21T18:57:37.106Z,27.85
2023-03-21T19:01:18.436Z,27.80
2023-03-21T19:05:17.090Z,28.06
2023-03-21T19:09:18.117Z,27.83
2023-03-21T19:13:16.718Z,27.71
2023-03-21T19:18:15.337Z,27.58
2023-03-21T19:21:17.679Z,27.68
2023-03-21T19:25:16.677Z,27.63
2023-03-21T19:29:16.609Z,27.86
2023-03-21T19:33:16.556Z,27.83
2023-03-21T19:37:16.525Z,27.63
2023-03-21T19:41:16.567Z,27.57
2023-03-21T19:45:16.466Z,27.77
2023-03-21T19:49:17.816Z,27.89
2023-03-21T19:53:16.424Z,28.09
2023-03-21T19:57:16.337Z,28.14
2023-03-21T20:01:16.409Z,28.20
2023-03-21T20:05:16.306Z,28.20
2023-03-21T20:09:50.566Z,28.18
2023-03-21T20:13:17.217Z,28.16
2023-03-21T20:17:16.358Z,28.13
2023-03-21T20:21:21.492Z,28.11
2023-03-21T20:25:17.117Z,28.07
2023-03-21T20:33:17.008Z,27.95
2023-03-21T20:37:15.970Z,27.89
2023-03-21T20:41:16.002Z,27.90
2023-03-21T20:45:16.108Z,27.83
2023-03-21T20:49:16.123Z,27.80
2023-03-21T20:53:16.223Z,27.71
2023-03-21T20:57:16.244Z,27.72
2023-03-21T21:01:16.220Z,27.70
2023-03-21T21:05:34.559Z,27.67
2023-03-21T21:09:17.251Z,27.64
2023-03-21T21:13:16.104Z,27.63
2023-03-21T21:17:54.581Z,27.63
2023-03-21T21:21:17.058Z,27.55
2023-03-21T21:25:16.041Z,27.45
2023-03-21T21:29:15.982Z,27.52
2023-03-21T21:33:15.935Z,27.46
2023-03-21T21:37:15.861Z,27.38
2023-03-21T21:41:15.893Z,27.41
2023-03-21T21:45:15.857Z,27.40
2023-03-21T21:49:15.824Z,27.39
2023-03-21T21:53:15.778Z,27.37
2023-03-21T21:57:15.686Z,27.29
2023-03-21T22:01:15.736Z,27.30
2023-03-21T22:05:15.687Z,27.29
2023-03-21T22:09:15.772Z,27.28
2023-03-21T22:13:15.691Z,27.23
2023-03-21T22:17:15.668Z,27.20
2023-03-21T22:21:15.687Z,27.23
2023-03-21T22:25:15.664Z,27.20
2023-03-21T22:29:15.641Z,27.12
2023-03-21T22:33:15.635Z,27.17
2023-03-21T22:37:15.602Z,27.10
2023-03-21T22:41:15.628Z,27.08
2023-03-21T22:45:15.613Z,27.18
2023-03-21T22:49:15.665Z,27.16
2023-03-21T22:53:15.671Z,27.17
2023-03-21T22:57:15.690Z,27.22
2023-03-21T23:01:18.693Z,27.16
2023-03-21T23:05:15.682Z,27.23
2023-03-21T23:09:15.631Z,27.20
2023-03-21T23:13:15.607Z,27.23
2023-03-21T23:17:15.520Z,27.22
2023-03-21T23:21:15.474Z,27.23
2023-03-21T23:25:15.475Z,27.29
2023-03-21T23:29:15.452Z,27.27
2023-03-21T23:33:15.352Z,27.25
2023-03-21T23:37:15.387Z,27.28
2023-03-21T23:41:15.323Z,27.28
2023-03-21T23:45:15.252Z,27.35
2023-03-21T23:49:15.247Z,27.31
2023-03-21T23:53:15.210Z,27.31
2023-03-21T23:57:15.208Z,27.32
